Time;durP1;ratioP1;P1;durP2;ratioP2;P2;SDS_P1;SDS_P2;PMS_P1;PMS_P2;Temp;Humidity;BMP_temperature;BMP_pressure;BME280_temperature;BME280_humidity;BME280_pressure;Samples;Min_cycle;Max_cycle;Signal;HPM_P1;HPM_P2
2022/08/29 00:03:59;;;;;;;0.93;0.93;;;;;;;;;;10456901;28;20282;-72
2022/08/29 00:09:00;;;;;;;1.58;0.98;;;;;;;;;;10490869;28;20210;-72
2022/08/29 00:14:01;;;;;;;1.23;0.95;;;;;;;;;;10487001;28;20236;-71
2022/08/29 00:19:02;;;;;;;1.58;0.60;;;;;;;;;;10492924;28;20217;-71
2022/08/29 00:24:03;;;;;;;0.88;0.85;;;;;;;;;;10479592;28;20244;-71
2022/08/29 00:29:04;;;;;;;1.00;1.00;;;;;;;;;;10491789;28;20736;-70
2022/08/29 00:34:06;;;;;;;0.82;0.60;;;;;;;;;;10492718;28;20308;-70
2022/08/29 00:39:07;;;;;;;0.63;0.60;;;;;;;;;;10491903;28;20225;-70
2022/08/29 00:44:08;;;;;;;0.93;0.88;;;;;;;;;;10471709;28;20348;-71
2022/08/29 00:49:12;;;;;;;2.10;0.95;;;;;;;;;;10472975;28;20222;-71
2022/08/29 00:54:13;;;;;;;1.20;0.77;;;;;;;;;;10458428;28;20218;-70
2022/08/29 00:59:17;;;;;;;2.97;0.80;;;;;;;;;;10485371;28;20623;-71
2022/08/29 01:04:18;;;;;;;1.98;0.63;;;;;;;;;;10488683;28;20233;-71
2022/08/29 01:09:19;;;;;;;0.60;0.60;;;;;;;;;;10490729;28;20210;-71
2022/08/29 01:14:22;;;;;;;3.13;1.10;;;;;;;;;;10487963;28;20718;-70
2022/08/29 01:19:42;;;;;;;1.48;1.10;;;;;;;;;;10489122;28;20298;-71
2022/08/29 01:24:49;;;;;;;1.60;0.73;;;;;;;;;;10491547;28;20920;-70
2022/08/29 01:29:50;;;;;;;2.25;0.80;;;;;;;;;;10460357;28;20595;-71
2022/08/29 01:34:52;;;;;;;2.05;0.75;;;;;;;;;;10486861;28;20662;-71
2022/08/29 01:39:53;;;;;;;3.50;1.40;;;;;;;;;;10486224;28;20210;-71
2022/08/29 01:44:55;;;;;;;0.98;0.90;;;;;;;;;;10460615;28;20237;-71
2022/08/29 01:49:56;;;;;;;0.95;0.60;;;;;;;;;;10487187;28;20218;-71
2022/08/29 01:54:58;;;;;;;2.55;0.93;;;;;;;;;;10483648;28;20230;-71
2022/08/29 01:59:59;;;;;;;1.00;0.88;;;;;;;;;;10493680;28;20736;-71
2022/08/29 02:05:00;;;;;;;1.00;1.00;;;;;;;;;;10495899;28;20236;-71
2022/08/29 02:10:01;;;;;;;1.70;0.70;;;;;;;;;;10496577;28;20217;-70
2022/08/29 02:15:02;;;;;;;2.13;1.05;;;;;;;;;;10499324;28;20716;-71
2022/08/29 02:20:07;;;;;;;1.40;0.80;;;;;;;;;;10499037;28;20224;-71
2022/08/29 02:30:29;;;;;;;1.20;1.13;;;;;;;;;;10496579;28;20221;-71
2022/08/29 02:35:30;;;;;;;1.30;0.68;;;;;;;;;;10499582;28;20364;-71
2022/08/29 02:40:32;;;;;;;1.02;0.90;;;;;;;;;;10499257;28;20220;-71
2022/08/29 02:45:36;;;;;;;1.25;1.05;;;;;;;;;;10491881;28;20244;-71
2022/08/29 02:50:45;;;;;;;0.77;0.70;;;;;;;;;;10495066;28;20301;-71
2022/08/29 02:55:47;;;;;;;0.73;0.68;;;;;;;;;;10462752;28;20341;-71
2022/08/29 03:00:48;;;;;;;1.38;0.80;;;;;;;;;;10490135;28;21198;-71
2022/08/29 03:05:50;;;;;;;1.88;0.88;;;;;;;;;;10474028;28;21049;-71
2022/08/29 03:10:51;;;;;;;0.75;0.60;;;;;;;;;;10464423;28;20217;-71
2022/08/29 03:15:52;;;;;;;3.33;0.88;;;;;;;;;;10492284;28;20757;-71
2022/08/29 03:20:53;;;;;;;1.88;0.95;;;;;;;;;;10476580;28;20213;-71
2022/08/29 03:25:54;;;;;;;0.57;0.57;;;;;;;;;;10489099;28;20209;-72
2022/08/29 03:30:55;;;;;;;0.98;0.98;;;;;;;;;;10494007;28;20218;-71
2022/08/29 03:35:56;;;;;;;1.95;0.90;;;;;;;;;;10497162;28;20217;-70
2022/08/29 03:40:57;;;;;;;1.00;0.80;;;;;;;;;;10495411;28;20217;-71
2022/08/29 03:45:58;;;;;;;1.15;0.95;;;;;;;;;;10493021;28;20228;-71
2022/08/29 03:50:59;;;;;;;2.03;0.85;;;;;;;;;;10492581;28;20236;-70
2022/08/29 03:56:00;;;;;;;3.42;0.90;;;;;;;;;;10485491;28;20217;-70
2022/08/29 04:01:01;;;;;;;4.35;0.70;;;;;;;;;;10485632;28;20213;-71
2022/08/29 04:06:02;;;;;;;1.65;0.98;;;;;;;;;;10465847;28;20225;-71
2022/08/29 04:11:10;;;;;;;1.15;1.00;;;;;;;;;;10489909;28;20218;-71
2022/08/29 04:16:13;;;;;;;0.80;0.80;;;;;;;;;;10489798;28;20270;-71
2022/08/29 04:21:14;;;;;;;1.70;1.10;;;;;;;;;;10494835;28;20225;-71
2022/08/29 04:26:16;;;;;;;0.65;0.65;;;;;;;;;;10496285;28;20225;-71
2022/08/29 04:31:19;;;;;;;0.77;0.77;;;;;;;;;;10491574;28;20304;-71
2022/08/29 04:36:20;;;;;;;3.50;1.10;;;;;;;;;;10466696;28;20936;-71
2022/08/29 04:41:21;;;;;;;1.33;0.98;;;;;;;;;;10493192;28;20749;-70
2022/08/29 04:46:22;;;;;;;0.93;0.93;;;;;;;;;;10464462;28;20210;-71
2022/08/29 04:51:23;;;;;;;1.63;1.00;;;;;;;;;;10464450;28;20301;-71
2022/08/29 04:56:24;;;;;;;1.17;0.90;;;;;;;;;;10490743;28;20221;-71
2022/08/29 05:01:25;;;;;;;2.67;0.85;;;;;;;;;;10477478;28;20705;-71
2022/08/29 05:06:27;;;;;;;0.60;0.60;;;;;;;;;;10451755;28;20779;-72
2022/08/29 05:11:29;;;;;;;0.95;0.93;;;;;;;;;;10478188;28;21014;-71
2022/08/29 05:16:30;;;;;;;1.00;0.88;;;;;;;;;;10481650;28;20222;-72
2022/08/29 05:21:33;;;;;;;0.63;0.63;;;;;;;;;;10490844;28;20282;-72
2022/08/29 05:26:37;;;;;;;0.70;0.70;;;;;;;;;;10464943;28;20223;-72
2022/08/29 05:31:41;;;;;;;2.97;0.90;;;;;;;;;;10495183;28;20650;-72
2022/08/29 05:36:42;;;;;;;2.97;0.95;;;;;;;;;;10491941;28;20217;-72
2022/08/29 05:41:43;;;;;;;1.42;0.70;;;;;;;;;;10489297;28;20210;-72
2022/08/29 05:46:44;;;;;;;1.95;0.98;;;;;;;;;;10490280;28;20214;-72
2022/08/29 05:51:45;;;;;;;0.77;0.77;;;;;;;;;;10473841;28;20301;-71
2022/08/29 05:56:46;;;;;;;0.95;0.68;;;;;;;;;;10475175;28;20213;-71
2022/08/29 06:01:47;;;;;;;2.10;0.77;;;;;;;;;;10489624;28;20586;-74
2022/08/29 06:06:49;;;;;;;1.15;0.75;;;;;;;;;;10492179;28;20234;-72
2022/08/29 06:11:52;;;;;;;0.70;0.70;;;;;;;;;;10490981;28;20591;-71
2022/08/29 06:16:53;;;;;;;2.58;1.00;;;;;;;;;;10474045;28;20221;-71
2022/08/29 06:21:55;;;;;;;2.33;0.77;;;;;;;;;;10484209;28;20228;-72
2022/08/29 06:26:56;;;;;;;1.02;0.93;;;;;;;;;;10472660;28;20768;-71
2022/08/29 06:31:57;;;;;;;1.65;0.80;;;;;;;;;;10471825;28;20596;-72
2022/08/29 06:36:58;;;;;;;0.90;0.82;;;;;;;;;;10491672;28;20221;-72
2022/08/29 06:41:59;;;;;;;0.82;0.82;;;;;;;;;;10468740;28;20213;-72
2022/08/29 06:47:00;;;;;;;1.40;0.93;;;;;;;;;;10492036;28;20218;-72
2022/08/29 06:52:02;;;;;;;0.65;0.65;;;;;;;;;;10470958;28;20266;-72
2022/08/29 06:57:03;;;;;;;0.80;0.80;;;;;;;;;;10499673;28;20221;-73
2022/08/29 07:02:04;;;;;;;0.70;0.70;;;;;;;;;;10499113;28;20213;-73
2022/08/29 07:07:05;;;;;;;1.52;0.80;;;;;;;;;;10495502;28;20233;-73
2022/08/29 07:12:06;;;;;;;2.28;0.73;;;;;;;;;;10478918;28;20214;-73
2022/08/29 07:17:07;;;;;;;1.40;1.25;;;;;;;;;;10494932;28;20676;-73
2022/08/29 07:22:08;;;;;;;1.30;0.88;;;;;;;;;;10475633;28;20314;-73
2022/08/29 07:27:10;;;;;;;1.13;0.93;;;;;;;;;;10483641;28;20677;-72
2022/08/29 07:32:11;;;;;;;0.98;0.98;;;;;;;;;;10493479;28;20213;-72
2022/08/29 07:37:12;;;;;;;1.52;0.75;;;;;;;;;;10499913;28;20275;-74
2022/08/29 07:42:14;;;;;;;1.27;1.17;;;;;;;;;;10501011;28;20214;-73
2022/08/29 07:47:15;;;;;;;1.33;1.02;;;;;;;;;;10490630;28;20693;-72
2022/08/29 07:52:16;;;;;;;0.80;0.80;;;;;;;;;;10490478;28;20296;-74
2022/08/29 07:57:17;;;;;;;2.28;0.98;;;;;;;;;;10485356;28;20314;-73
2022/08/29 08:02:18;;;;;;;1.20;1.20;;;;;;;;;;10486439;28;20241;-72
2022/08/29 08:07:20;;;;;;;1.45;1.00;;;;;;;;;;10490662;28;20687;-73
2022/08/29 08:12:22;;;;;;;0.88;0.88;;;;;;;;;;10489410;28;20729;-77
2022/08/29 08:17:23;;;;;;;1.52;1.05;;;;;;;;;;10457979;28;20584;-77
2022/08/29 08:22:24;;;;;;;1.50;1.30;;;;;;;;;;10486045;28;20225;-74
2022/08/29 08:27:25;;;;;;;3.05;1.00;;;;;;;;;;10489634;28;20602;-74
2022/08/29 08:32:26;;;;;;;3.45;1.50;;;;;;;;;;10458743;28;20206;-75
2022/08/29 08:37:27;;;;;;;1.05;1.00;;;;;;;;;;10491665;28;20226;-73
2022/08/29 08:42:42;;;;;;;1.13;0.90;;;;;;;;;;10494499;28;20214;-74
2022/08/29 08:47:59;;;;;;;1.00;1.00;;;;;;;;;;10488311;28;20227;-74
2022/08/29 08:53:06;;;;;;;1.92;1.15;;;;;;;;;;10462336;28;20310;-73
2022/08/29 08:58:16;;;;;;;1.48;1.38;;;;;;;;;;10484486;28;20244;-75
2022/08/29 09:03:29;;;;;;;1.30;0.98;;;;;;;;;;10486902;28;20239;-74
2022/08/29 09:08:30;;;;;;;1.20;0.70;;;;;;;;;;10416874;28;20729;-74
2022/08/29 09:13:45;;;;;;;0.88;0.88;;;;;;;;;;10443881;28;20963;-73
2022/08/29 09:18:46;;;;;;;1.15;1.02;;;;;;;;;;10447166;28;20248;-72
2022/08/29 09:23:49;;;;;;;0.88;0.88;;;;;;;;;;10434008;28;20218;-74
2022/08/29 09:28:50;;;;;;;1.40;1.30;;;;;;;;;;10433314;28;21227;-75
2022/08/29 09:33:53;;;;;;;1.50;1.35;;;;;;;;;;10405656;28;20318;-74
2022/08/29 09:39:09;;;;;;;0.70;0.70;;;;;;;;;;10434275;28;20213;-76
2022/08/29 09:44:13;;;;;;;2.65;1.00;;;;;;;;;;10420297;28;20221;-81
2022/08/29 09:49:17;;;;;;;1.25;1.15;;;;;;;;;;10431503;28;20238;-81
2022/08/29 09:54:31;;;;;;;0.88;0.88;;;;;;;;;;10473109;28;20210;-81
2022/08/29 09:59:34;;;;;;;0.98;0.98;;;;;;;;;;10466564;28;20213;-84
2022/08/29 10:04:36;;;;;;;1.10;0.98;;;;;;;;;;10482874;28;20709;-74
2022/08/29 10:09:37;;;;;;;1.30;1.30;;;;;;;;;;10486120;28;20297;-82
2022/08/29 10:14:42;;;;;;;1.55;1.48;;;;;;;;;;10480622;28;20225;-75
2022/08/29 10:19:44;;;;;;;1.00;0.90;;;;;;;;;;10478960;28;20646;-75
2022/08/29 10:24:48;;;;;;;1.33;1.33;;;;;;;;;;10469850;28;20218;-76
2022/08/29 10:30:06;;;;;;;0.90;0.90;;;;;;;;;;10495366;28;20225;-75
2022/08/29 10:35:15;;;;;;;2.30;1.10;;;;;;;;;;10501525;28;20775;-77
2022/08/29 10:40:25;;;;;;;1.00;1.00;;;;;;;;;;10508709;28;20227;-80
2022/08/29 10:45:37;;;;;;;1.85;0.80;;;;;;;;;;10502457;28;20296;-77
2022/08/29 10:50:47;;;;;;;0.70;0.70;;;;;;;;;;10504770;28;20221;-77
2022/08/29 10:55:52;;;;;;;0.93;0.93;;;;;;;;;;10481786;28;20221;-77
2022/08/29 11:00:56;;;;;;;1.00;1.00;;;;;;;;;;10500369;28;20214;-77
2022/08/29 11:06:00;;;;;;;1.20;1.20;;;;;;;;;;10499331;28;20451;-75
2022/08/29 11:11:01;;;;;;;1.25;1.25;;;;;;;;;;10464887;28;20214;-77
2022/08/29 11:16:21;;;;;;;1.45;1.17;;;;;;;;;;10495856;28;20226;-76
2022/08/29 11:21:32;;;;;;;1.23;0.90;;;;;;;;;;10500445;28;20224;-76
2022/08/29 11:26:33;;;;;;;0.73;0.73;;;;;;;;;;10498627;28;20690;-74
2022/08/29 11:31:34;;;;;;;1.00;1.00;;;;;;;;;;10477690;28;20221;-76
2022/08/29 11:36:56;;;;;;;1.17;0.90;;;;;;;;;;10494802;28;20280;-75
2022/08/29 11:42:00;;;;;;;0.80;0.80;;;;;;;;;;10500879;28;20226;-77
2022/08/29 11:47:21;;;;;;;1.30;1.05;;;;;;;;;;10465702;28;21137;-76
2022/08/29 11:52:24;;;;;;;1.70;1.58;;;;;;;;;;10504452;28;20209;-78
2022/08/29 11:57:31;;;;;;;1.60;0.82;;;;;;;;;;10485451;28;20222;-76
2022/08/29 12:02:32;;;;;;;0.60;0.60;;;;;;;;;;10496113;28;20213;-75
2022/08/29 12:07:43;;;;;;;1.92;0.77;;;;;;;;;;10489835;28;20572;-77
2022/08/29 12:12:48;;;;;;;0.90;0.90;;;;;;;;;;10487803;28;20217;-77
2022/08/29 12:17:49;;;;;;;0.70;0.70;;;;;;;;;;10473834;28;20228;-76
2022/08/29 12:22:56;;;;;;;0.68;0.68;;;;;;;;;;10498618;28;20336;-78
2022/08/29 12:28:00;;;;;;;0.88;0.82;;;;;;;;;;10489476;28;20222;-76
2022/08/29 12:33:06;;;;;;;0.70;0.70;;;;;;;;;;10475022;28;20562;-76
2022/08/29 12:38:26;;;;;;;0.75;0.75;;;;;;;;;;10491995;28;20222;-78
2022/08/29 12:43:33;;;;;;;1.23;0.80;;;;;;;;;;10486244;28;20216;-74
2022/08/29 12:48:39;;;;;;;0.63;0.63;;;;;;;;;;10460380;28;20882;-76
2022/08/29 12:53:40;;;;;;;0.88;0.88;;;;;;;;;;10491760;28;20218;-77
2022/08/29 12:59:00;;;;;;;0.60;0.60;;;;;;;;;;10474814;28;20217;-77
2022/08/29 13:04:01;;;;;;;0.80;0.80;;;;;;;;;;10458837;28;20230;-75
2022/08/29 13:09:03;;;;;;;0.80;0.80;;;;;;;;;;10488880;28;20267;-76
2022/08/29 13:14:09;;;;;;;0.80;0.80;;;;;;;;;;10488917;28;20226;-77
2022/08/29 13:19:20;;;;;;;0.70;0.70;;;;;;;;;;10487434;28;20292;-77
2022/08/29 13:24:22;;;;;;;0.75;0.75;;;;;;;;;;10465305;28;20210;-78
2022/08/29 13:29:26;;;;;;;1.00;1.00;;;;;;;;;;10491308;28;20213;-79
2022/08/29 13:34:27;;;;;;;1.08;1.08;;;;;;;;;;10475028;28;20218;-78
2022/08/29 13:39:30;;;;;;;1.08;1.08;;;;;;;;;;10482040;28;20212;-77
2022/08/29 13:44:31;;;;;;;0.70;0.70;;;;;;;;;;10456622;28;20221;-76
2022/08/29 13:49:34;;;;;;;0.90;0.90;;;;;;;;;;10460939;28;20249;-76
2022/08/29 13:54:36;;;;;;;0.90;0.90;;;;;;;;;;10484468;28;20249;-76
2022/08/29 13:59:38;;;;;;;4.00;1.27;;;;;;;;;;10482988;28;20592;-77
2022/08/29 14:04:39;;;;;;;1.02;0.80;;;;;;;;;;10417374;28;1285622;-77
2022/08/29 14:09:41;;;;;;;0.77;0.77;;;;;;;;;;10485540;28;20469;-76
2022/08/29 14:14:43;;;;;;;0.80;0.70;;;;;;;;;;10486606;28;20305;-76
2022/08/29 14:19:44;;;;;;;0.68;0.60;;;;;;;;;;10492924;28;20241;-77
2022/08/29 14:24:50;;;;;;;0.52;0.52;;;;;;;;;;10489991;28;20210;-75
2022/08/29 14:29:52;;;;;;;0.77;0.77;;;;;;;;;;10492289;28;20210;-81
2022/08/29 14:34:53;;;;;;;0.70;0.70;;;;;;;;;;10496999;28;20229;-78
2022/08/29 14:39:54;;;;;;;1.50;0.70;;;;;;;;;;10485605;28;20264;-77
2022/08/29 14:44:56;;;;;;;1.08;1.00;;;;;;;;;;10487374;28;20209;-78
2022/08/29 14:49:57;;;;;;;0.60;0.60;;;;;;;;;;10467809;28;20320;-79
2022/08/29 14:54:58;;;;;;;0.80;0.80;;;;;;;;;;10493531;28;23384;-78
2022/08/29 14:59:59;;;;;;;0.70;0.70;;;;;;;;;;10473651;28;20214;-77
2022/08/29 15:05:00;;;;;;;1.05;1.05;;;;;;;;;;10493214;28;20685;-74
2022/08/29 15:10:01;;;;;;;0.60;0.60;;;;;;;;;;10489619;28;20244;-75
2022/08/29 15:15:02;;;;;;;0.90;0.80;;;;;;;;;;10488230;28;20213;-75
2022/08/29 15:20:04;;;;;;;0.60;0.60;;;;;;;;;;10507086;28;20312;-84
2022/08/29 15:25:05;;;;;;;0.93;0.93;;;;;;;;;;10483176;28;20916;-83
2022/08/29 15:30:07;;;;;;;0.73;0.73;;;;;;;;;;10508568;28;20301;-82
2022/08/29 15:35:09;;;;;;;1.65;0.85;;;;;;;;;;10497104;28;20300;-81
2022/08/29 15:40:10;;;;;;;0.70;0.70;;;;;;;;;;10478276;28;20256;-79
2022/08/29 15:45:11;;;;;;;1.00;1.00;;;;;;;;;;10492016;28;20266;-80
2022/08/29 15:50:13;;;;;;;0.82;0.82;;;;;;;;;;10468660;28;20216;-79
2022/08/29 15:55:14;;;;;;;0.70;0.70;;;;;;;;;;10497199;28;20205;-80
2022/08/29 16:00:17;;;;;;;0.93;0.93;;;;;;;;;;10472726;28;20178;-81
2022/08/29 16:05:19;;;;;;;0.98;0.98;;;;;;;;;;10470236;28;20286;-80
2022/08/29 16:10:20;;;;;;;0.80;0.80;;;;;;;;;;10464099;28;20232;-79
2022/08/29 16:15:21;;;;;;;0.73;0.73;;;;;;;;;;10489258;28;20329;-79
2022/08/29 16:20:22;;;;;;;0.70;0.70;;;;;;;;;;10494303;28;20189;-79
2022/08/29 16:25:24;;;;;;;0.70;0.70;;;;;;;;;;10464804;28;20679;-76
2022/08/29 16:30:25;;;;;;;0.70;0.70;;;;;;;;;;10486541;28;20621;-77
2022/08/29 16:35:26;;;;;;;1.13;0.55;;;;;;;;;;10474653;28;20733;-75
2022/08/29 16:40:27;;;;;;;0.80;0.80;;;;;;;;;;10481649;28;20217;-76
2022/08/29 16:45:28;;;;;;;0.60;0.60;;;;;;;;;;10493126;28;20210;-75
2022/08/29 16:50:29;;;;;;;0.98;0.80;;;;;;;;;;10482842;28;20803;-75
2022/08/29 16:55:30;;;;;;;0.90;0.80;;;;;;;;;;10480154;28;20973;-75
2022/08/29 17:00:32;;;;;;;0.95;0.95;;;;;;;;;;10489847;28;20211;-75
2022/08/29 17:05:33;;;;;;;0.90;0.90;;;;;;;;;;10487813;28;20230;-75
2022/08/29 17:20:37;;;;;;;0.90;0.90;;;;;;;;;;10478057;28;20320;-76
2022/08/29 17:25:39;;;;;;;1.02;0.85;;;;;;;;;;10479039;28;20707;-76
2022/08/29 17:30:40;;;;;;;0.60;0.60;;;;;;;;;;10463062;28;20210;-77
2022/08/29 17:35:42;;;;;;;0.90;0.90;;;;;;;;;;10490560;28;20225;-77
2022/08/29 17:40:43;;;;;;;0.82;0.82;;;;;;;;;;10469059;28;20217;-75
2022/08/29 17:45:45;;;;;;;0.70;0.70;;;;;;;;;;10488736;28;20217;-76
2022/08/29 17:50:46;;;;;;;0.80;0.80;;;;;;;;;;10483840;28;20296;-77
2022/08/29 17:55:49;;;;;;;0.50;0.50;;;;;;;;;;10488243;28;20283;-77
2022/08/29 18:00:51;;;;;;;0.65;0.60;;;;;;;;;;10467420;28;20217;-77
2022/08/29 18:05:52;;;;;;;0.65;0.65;;;;;;;;;;10496975;28;20221;-76
2022/08/29 18:10:53;;;;;;;0.60;0.60;;;;;;;;;;10485533;28;20216;-76
2022/08/29 18:15:54;;;;;;;1.10;1.10;;;;;;;;;;10493564;28;20987;-80
2022/08/29 18:20:55;;;;;;;0.50;0.50;;;;;;;;;;10496324;28;20217;-77
2022/08/29 18:25:56;;;;;;;0.60;0.60;;;;;;;;;;10490689;28;21037;-76
2022/08/29 18:30:57;;;;;;;0.70;0.70;;;;;;;;;;10493320;28;20213;-76
2022/08/29 18:35:58;;;;;;;0.60;0.60;;;;;;;;;;10480119;28;20684;-79
2022/08/29 18:40:59;;;;;;;0.70;0.70;;;;;;;;;;10500884;28;20336;-77
2022/08/29 18:46:01;;;;;;;0.60;0.60;;;;;;;;;;10500940;28;20244;-77
2022/08/29 18:51:02;;;;;;;0.55;0.55;;;;;;;;;;10500456;28;20228;-74
2022/08/29 18:56:03;;;;;;;0.50;0.50;;;;;;;;;;10495131;28;20329;-78
2022/08/29 19:01:12;;;;;;;0.77;0.68;;;;;;;;;;10499041;28;20571;-76
2022/08/29 19:06:13;;;;;;;0.70;0.70;;;;;;;;;;10477244;28;20229;-80
2022/08/29 19:11:14;;;;;;;0.70;0.70;;;;;;;;;;10498201;28;20697;-75
2022/08/29 19:16:15;;;;;;;0.68;0.68;;;;;;;;;;10469457;28;20586;-76
2022/08/29 19:21:16;;;;;;;0.50;0.50;;;;;;;;;;10467601;28;20850;-75
2022/08/29 19:26:23;;;;;;;0.60;0.60;;;;;;;;;;10493696;28;20279;-76
2022/08/29 19:31:25;;;;;;;0.55;0.55;;;;;;;;;;10491711;28;20218;-69
2022/08/29 19:36:26;;;;;;;0.30;0.30;;;;;;;;;;10490515;28;20970;-73
2022/08/29 19:41:27;;;;;;;0.30;0.30;;;;;;;;;;10467130;28;20213;-73
2022/08/29 19:46:31;;;;;;;0.57;0.30;;;;;;;;;;10488205;28;20246;-71
2022/08/29 19:51:32;;;;;;;0.20;0.20;;;;;;;;;;10458235;28;20228;-80
2022/08/29 19:56:33;;;;;;;0.75;0.22;;;;;;;;;;10491639;28;20214;-78
2022/08/29 20:01:34;;;;;;;0.20;0.20;;;;;;;;;;10489936;28;20585;-75
2022/08/29 20:06:36;;;;;;;0.20;0.20;;;;;;;;;;10453505;28;20226;-75
2022/08/29 20:11:37;;;;;;;0.20;0.20;;;;;;;;;;10452710;28;20215;-75
2022/08/29 20:16:38;;;;;;;0.98;0.20;;;;;;;;;;10426178;28;20222;-76
2022/08/29 20:21:40;;;;;;;0.20;0.20;;;;;;;;;;10453304;28;20587;-76
2022/08/29 20:26:42;;;;;;;0.20;0.20;;;;;;;;;;10451912;28;20229;-76
2022/08/29 20:31:44;;;;;;;0.15;0.15;;;;;;;;;;10455935;28;20210;-76
2022/08/29 20:42:07;;;;;;;0.20;0.20;;;;;;;;;;10454700;28;20706;-76
2022/08/29 20:47:09;;;;;;;0.15;0.15;;;;;;;;;;10454827;28;20713;-75
2022/08/29 20:52:10;;;;;;;0.20;0.20;;;;;;;;;;10454786;28;20211;-75
2022/08/29 20:57:12;;;;;;;0.17;0.17;;;;;;;;;;10453371;28;20304;-76
2022/08/29 21:02:13;;;;;;;0.17;0.17;;;;;;;;;;10448575;28;20365;-76
2022/08/29 21:07:15;;;;;;;0.25;0.25;;;;;;;;;;10479530;28;20229;-75
2022/08/29 21:12:17;;;;;;;0.10;0.10;;;;;;;;;;10486926;28;20669;-75
2022/08/29 21:17:19;;;;;;;1.23;0.20;;;;;;;;;;10472578;28;20237;-75
2022/08/29 21:22:20;;;;;;;0.10;0.10;;;;;;;;;;10484485;28;20221;-75
2022/08/29 21:27:22;;;;;;;0.55;0.22;;;;;;;;;;10484386;28;20328;-75
2022/08/29 21:32:23;;;;;;;0.10;0.10;;;;;;;;;;10493185;28;20205;-75
2022/08/29 21:37:24;;;;;;;0.20;0.20;;;;;;;;;;10472774;28;20214;-75
2022/08/29 21:42:25;;;;;;;0.20;0.20;;;;;;;;;;10485923;28;20266;-76
2022/08/29 21:47:27;;;;;;;0.10;0.10;;;;;;;;;;10485669;28;20305;-75
2022/08/29 21:52:28;;;;;;;0.17;0.17;;;;;;;;;;10486538;28;20209;-76
2022/08/29 22:02:49;;;;;;;0.17;0.17;;;;;;;;;;10485282;28;20902;-75
2022/08/29 22:07:50;;;;;;;0.20;0.20;;;;;;;;;;10491308;28;20226;-75
2022/08/29 22:12:51;;;;;;;0.10;0.10;;;;;;;;;;10489122;28;20214;-75
2022/08/29 22:17:52;;;;;;;0.10;0.10;;;;;;;;;;10467645;28;20216;-75
2022/08/29 22:22:53;;;;;;;0.20;0.20;;;;;;;;;;10475463;28;20681;-75
2022/08/29 22:27:55;;;;;;;0.10;0.10;;;;;;;;;;10487998;28;20358;-75
2022/08/29 22:32:56;;;;;;;0.10;0.10;;;;;;;;;;10494153;28;20279;-75
2022/08/29 22:37:57;;;;;;;0.10;0.10;;;;;;;;;;10497311;28;20275;-75
2022/08/29 22:42:58;;;;;;;0.10;0.10;;;;;;;;;;10464778;28;20219;-75
2022/08/29 22:48:00;;;;;;;0.10;0.10;;;;;;;;;;10498368;28;20224;-75
2022/08/29 22:53:01;;;;;;;0.10;0.10;;;;;;;;;;10497257;28;20235;-75
2022/08/29 22:58:03;;;;;;;0.10;0.10;;;;;;;;;;10497364;28;20209;-75
2022/08/29 23:03:04;;;;;;;0.20;0.20;;;;;;;;;;10496040;28;20222;-75
2022/08/29 23:08:05;;;;;;;0.28;0.10;;;;;;;;;;10494261;28;20226;-75
2022/08/29 23:13:06;;;;;;;0.20;0.20;;;;;;;;;;10473277;28;20714;-75
2022/08/29 23:18:07;;;;;;;1.25;0.10;;;;;;;;;;10501454;28;20225;-75
2022/08/29 23:23:08;;;;;;;0.47;0.17;;;;;;;;;;10496678;28;20218;-74
2022/08/29 23:28:10;;;;;;;0.20;0.20;;;;;;;;;;10496680;28;20232;-75
2022/08/29 23:33:11;;;;;;;0.20;0.20;;;;;;;;;;10496749;28;20213;-74
2022/08/29 23:38:12;;;;;;;0.13;0.13;;;;;;;;;;10497851;28;20643;-75
2022/08/29 23:43:13;;;;;;;0.20;0.20;;;;;;;;;;10485937;28;20211;-75
2022/08/29 23:48:14;;;;;;;0.70;0.20;;;;;;;;;;10470120;28;20213;-75
2022/08/29 23:53:15;;;;;;;0.20;0.20;;;;;;;;;;10497402;28;20207;-75
2022/08/29 23:58:17;;;;;;;0.20;0.20;;;;;;;;;;10484640;28;20213;-75
